createdAt,value
2023-06-23T00:02:07.800Z,48.00
2023-06-23T00:04:35.864Z,48.10
2023-06-23T00:07:05.861Z,48.10
2023-06-23T00:09:33.941Z,48.00
2023-06-23T00:12:04.288Z,48.00
2023-06-23T00:14:32.321Z,48.20
2023-06-23T00:17:00.861Z,48.30
2023-06-23T00:19:29.394Z,48.30
2023-06-23T00:21:57.449Z,48.40
2023-06-23T00:24:25.523Z,48.50
2023-06-23T00:26:53.717Z,48.60
2023-06-23T00:29:23.130Z,48.50
2023-06-23T00:31:51.408Z,48.60
2023-06-23T00:34:19.570Z,48.60
2023-06-23T00:36:47.580Z,48.70
2023-06-23T00:39:16.186Z,48.70
2023-06-23T00:41:44.215Z,48.70
2023-06-23T00:44:12.819Z,48.80
2023-06-23T00:46:44.811Z,48.80
2023-06-23T00:49:15.782Z,49.00
2023-06-23T00:51:44.293Z,49.10
2023-06-23T00:54:12.671Z,49.10
2023-06-23T00:56:41.392Z,49.10
2023-06-23T01:03:06.542Z,49.60
2023-06-23T01:09:23.629Z,49.60
2023-06-23T01:12:04.701Z,49.80
2023-06-23T01:14:37.526Z,49.70
2023-06-23T01:17:12.828Z,49.50
2023-06-23T01:19:57.498Z,49.50
2023-06-23T01:22:34.221Z,49.90
2023-06-23T01:25:15.245Z,49.60
2023-06-23T01:28:26.087Z,49.80
2023-06-23T01:31:01.368Z,50.10
2023-06-23T01:33:38.224Z,49.60
2023-06-23T01:36:12.786Z,49.70
2023-06-23T01:38:45.905Z,49.70
2023-06-23T01:41:20.874Z,49.60
2023-06-23T01:43:52.271Z,49.60
2023-06-23T01:46:27.760Z,49.60
2023-06-23T01:49:00.881Z,49.70
2023-06-23T01:51:31.148Z,50.40
2023-06-23T01:54:00.191Z,49.70
2023-06-23T01:59:47.884Z,50.00
2023-06-23T02:02:21.008Z,49.60
2023-06-23T02:04:51.630Z,49.70
2023-06-23T02:07:21.832Z,49.60
2023-06-23T02:09:51.011Z,49.60
2023-06-23T02:12:20.086Z,49.70
2023-06-23T02:14:50.759Z,49.70
2023-06-23T02:17:22.966Z,49.70
2023-06-23T02:19:52.687Z,49.90
2023-06-23T02:22:24.955Z,49.70
2023-06-23T02:24:53.697Z,49.70
2023-06-23T02:27:23.573Z,49.70
2023-06-23T02:29:52.853Z,49.70
2023-06-23T02:32:22.332Z,49.60
2023-06-23T02:34:50.777Z,49.70
2023-06-23T02:37:25.116Z,49.70
2023-06-23T02:39:59.294Z,50.00
2023-06-23T02:42:33.750Z,50.20
2023-06-23T02:45:06.775Z,50.10
2023-06-23T02:47:39.834Z,50.10
2023-06-23T02:50:13.935Z,50.20
2023-06-23T02:52:46.989Z,50.30
2023-06-23T02:55:20.461Z,50.30
2023-06-23T02:57:53.194Z,50.30
2023-06-23T03:00:25.043Z,50.30
2023-06-23T03:03:01.435Z,50.30
2023-06-23T03:05:30.097Z,50.70
2023-06-23T03:08:01.755Z,50.40
2023-06-23T03:10:30.433Z,50.40
2023-06-23T03:13:00.960Z,50.40
2023-06-23T03:15:30.282Z,50.60
2023-06-23T03:18:06.717Z,50.60
2023-06-23T03:20:40.130Z,50.90
2023-06-23T03:23:13.556Z,50.90
2023-06-23T03:25:43.116Z,50.90
2023-06-23T03:28:15.344Z,50.80
2023-06-23T03:30:50.178Z,50.90
2023-06-23T03:33:24.304Z,51.00
2023-06-23T03:39:21.361Z,51.20
2023-06-23T03:41:50.739Z,51.00
2023-06-23T03:44:27.537Z,50.90
2023-06-23T03:47:00.165Z,51.20
2023-06-23T03:49:37.672Z,51.20
2023-06-23T03:52:09.724Z,51.30
2023-06-23T03:54:40.946Z,51.20
2023-06-23T03:57:14.378Z,51.30
2023-06-23T03:59:43.702Z,51.30
2023-06-23T04:02:15.465Z,51.30
2023-06-23T04:04:46.989Z,51.40
2023-06-23T04:07:16.248Z,51.50
2023-06-23T04:09:47.971Z,51.40
2023-06-23T04:12:20.169Z,51.60
2023-06-23T04:14:52.900Z,51.50
2023-06-23T04:17:27.021Z,51.60
2023-06-23T04:19:59.196Z,51.70
2023-06-23T04:25:32.337Z,52.00
2023-06-23T04:28:05.338Z,51.60
2023-06-23T04:30:36.620Z,51.80
2023-06-23T04:33:04.979Z,51.90
2023-06-23T04:35:34.894Z,51.90
2023-06-23T04:38:08.748Z,52.00
2023-06-23T04:40:43.354Z,52.20
2023-06-23T04:43:15.238Z,52.40
2023-06-23T04:45:50.270Z,52.40
2023-06-23T04:48:23.661Z,52.30
2023-06-23T04:50:54.874Z,52.40
2023-06-23T04:53:28.222Z,52.50
2023-06-23T04:56:00.996Z,52.50
2023-06-23T04:58:35.326Z,52.70
2023-06-23T05:01:05.420Z,52.70
2023-06-23T05:03:34.753Z,52.80
2023-06-23T05:06:06.513Z,52.80
2023-06-23T05:08:36.232Z,53.10
2023-06-23T05:11:07.542Z,53.00
2023-06-23T05:13:38.139Z,53.10
2023-06-23T05:16:11.519Z,53.10
2023-06-23T05:18:41.254Z,52.90
2023-06-23T05:21:11.704Z,53.10
2023-06-23T05:26:15.951Z,52.90
2023-06-23T05:28:45.448Z,53.00
2023-06-23T05:31:15.277Z,52.80
2023-06-23T05:33:46.127Z,52.80
2023-06-23T05:36:17.568Z,52.80
2023-06-23T05:38:47.334Z,52.80
2023-06-23T05:41:16.302Z,52.80
2023-06-23T05:43:44.397Z,52.70
2023-06-23T05:46:17.070Z,52.60
2023-06-23T05:48:51.136Z,52.80
2023-06-23T05:51:26.809Z,53.30
2023-06-23T05:54:01.886Z,52.80
2023-06-23T05:56:34.883Z,52.70
2023-06-23T05:59:08.378Z,52.80
2023-06-23T06:01:43.256Z,52.70
2023-06-23T06:04:15.906Z,52.90
2023-06-23T06:06:48.263Z,52.80
2023-06-23T06:09:19.163Z,52.90
2023-06-23T06:11:48.832Z,52.70
2023-06-23T06:14:18.222Z,52.70
2023-06-23T06:16:47.790Z,52.60
2023-06-23T06:19:19.255Z,52.60
2023-06-23T06:21:50.518Z,52.60
2023-06-23T06:24:20.444Z,52.70
2023-06-23T06:26:49.692Z,52.60
2023-06-23T06:29:20.856Z,52.50
2023-06-23T06:31:50.604Z,52.60
2023-06-23T06:34:21.103Z,52.50
2023-06-23T06:42:01.239Z,52.60
2023-06-23T06:44:31.539Z,52.50
2023-06-23T06:51:04.760Z,52.40
2023-06-23T06:56:50.444Z,52.30
2023-06-23T06:59:18.549Z,52.20
2023-06-23T07:01:49.449Z,52.20
2023-06-23T07:07:33.906Z,52.50
2023-06-23T07:10:02.023Z,52.30
2023-06-23T07:15:46.871Z,52.40
2023-06-23T07:18:16.791Z,52.20
2023-06-23T07:20:45.306Z,52.40
2023-06-23T07:23:13.408Z,52.40
2023-06-23T07:25:41.472Z,52.20
2023-06-23T07:28:09.507Z,52.10
2023-06-23T07:30:38.925Z,52.10
2023-06-23T07:33:07.041Z,52.00
2023-06-23T07:35:36.591Z,51.90
2023-06-23T07:38:05.176Z,51.90
2023-06-23T07:40:34.819Z,51.90
2023-06-23T07:43:03.375Z,51.70
2023-06-23T07:45:31.470Z,51.40
2023-06-23T07:47:59.667Z,51.50
2023-06-23T07:50:28.238Z,51.50
2023-06-23T07:52:57.617Z,51.60
2023-06-23T07:55:26.650Z,51.60
2023-06-23T07:57:54.721Z,51.60
2023-06-23T08:00:24.690Z,51.50
2023-06-23T08:02:52.921Z,51.50
2023-06-23T08:05:21.279Z,51.30
2023-06-23T08:07:49.584Z,51.40
2023-06-23T08:10:18.994Z,51.50
2023-06-23T08:12:47.091Z,51.50
2023-06-23T08:15:15.148Z,51.60
2023-06-23T08:17:43.273Z,51.60
2023-06-23T08:20:12.845Z,51.70
2023-06-23T08:22:41.679Z,51.70
2023-06-23T08:25:10.470Z,51.70
2023-06-23T08:27:39.940Z,51.90
2023-06-23T08:30:09.424Z,51.80
2023-06-23T08:32:37.618Z,51.70
2023-06-23T08:35:06.807Z,51.50
2023-06-23T08:37:35.002Z,51.40
2023-06-23T08:40:03.530Z,51.30
2023-06-23T08:42:31.714Z,50.90
2023-06-23T08:45:04.538Z,50.70
2023-06-23T08:47:33.864Z,50.70
2023-06-23T08:50:03.154Z,50.60
2023-06-23T08:52:31.476Z,50.60
2023-06-23T08:54:59.620Z,50.50
2023-06-23T08:57:27.780Z,50.40
2023-06-23T08:59:57.268Z,50.30
2023-06-23T09:02:26.686Z,50.30
2023-06-23T09:04:55.015Z,50.20
2023-06-23T09:07:23.355Z,49.90
2023-06-23T09:09:51.814Z,49.80
2023-06-23T09:12:23.068Z,50.00
2023-06-23T09:14:52.459Z,50.00
2023-06-23T09:17:21.210Z,50.10
2023-06-23T09:19:51.858Z,50.00
2023-06-23T09:22:21.304Z,49.70
2023-06-23T09:24:50.248Z,49.20
2023-06-23T09:27:18.542Z,49.10
2023-06-23T09:30:02.060Z,49.10
2023-06-23T09:32:31.334Z,49.10
2023-06-23T09:35:00.984Z,49.20
2023-06-23T09:37:37.322Z,49.40
2023-06-23T09:40:07.925Z,49.40
2023-06-23T09:42:36.203Z,49.50
2023-06-23T09:45:05.909Z,49.60
2023-06-23T09:47:40.193Z,49.40
2023-06-23T09:50:17.521Z,49.40
2023-06-23T09:52:45.861Z,49.60
2023-06-23T09:55:14.061Z,49.60
2023-06-23T09:57:42.260Z,49.60
2023-06-23T10:00:12.391Z,49.50
2023-06-23T10:02:41.210Z,49.40
2023-06-23T10:05:11.034Z,49.50
2023-06-23T10:07:39.285Z,49.60
2023-06-23T10:10:20.527Z,49.70
2023-06-23T10:12:50.688Z,49.80
2023-06-23T10:15:20.412Z,49.70
2023-06-23T10:17:48.862Z,49.60
2023-06-23T10:20:18.365Z,49.60
2023-06-23T10:22:47.949Z,49.40
2023-06-23T10:25:16.369Z,49.40
2023-06-23T10:27:46.517Z,49.30
2023-06-23T10:30:18.253Z,49.30
2023-06-23T10:32:54.058Z,49.10
2023-06-23T10:35:25.385Z,49.00
2023-06-23T10:38:04.691Z,48.70
2023-06-23T10:40:40.234Z,48.70
2023-06-23T10:43:09.971Z,48.80
2023-06-23T10:45:39.442Z,48.50
2023-06-23T10:48:07.839Z,48.70
2023-06-23T10:50:39.689Z,48.70
2023-06-23T10:53:13.268Z,48.80
2023-06-23T10:56:02.332Z,48.80
2023-06-23T10:58:31.696Z,49.00
2023-06-23T11:01:04.846Z,48.80
2023-06-23T11:03:35.757Z,48.80
2023-06-23T11:06:09.273Z,48.90
2023-06-23T11:08:39.469Z,49.00
2023-06-23T11:11:09.698Z,49.00
2023-06-23T11:13:45.939Z,48.90
2023-06-23T11:16:19.510Z,48.80
2023-06-23T11:18:52.578Z,48.80
2023-06-23T11:21:34.180Z,48.70
2023-06-23T11:24:13.993Z,48.70
2023-06-23T11:26:51.577Z,48.70
2023-06-23T11:29:22.499Z,48.70
2023-06-23T11:32:08.526Z,48.90
2023-06-23T11:42:37.553Z,48.90
2023-06-23T11:45:06.919Z,49.00
2023-06-23T11:47:35.179Z,49.00
2023-06-23T11:50:05.296Z,49.00
2023-06-23T11:52:33.670Z,49.20
2023-06-23T11:55:01.832Z,49.20
2023-06-23T11:57:32.338Z,49.20
2023-06-23T12:00:01.806Z,49.20
2023-06-23T12:02:29.882Z,49.30
2023-06-23T12:05:01.026Z,49.50
2023-06-23T12:07:32.084Z,49.60
2023-06-23T12:10:00.204Z,49.50
2023-06-23T12:12:29.563Z,49.50
2023-06-23T12:15:01.590Z,49.50
2023-06-23T12:17:29.900Z,49.60
2023-06-23T12:19:58.005Z,49.50
2023-06-23T12:22:36.862Z,49.50
2023-06-23T12:25:05.622Z,50.10
2023-06-23T12:27:33.895Z,49.60
2023-06-23T12:30:19.351Z,49.80
2023-06-23T12:43:56.121Z,50.50
2023-06-23T12:46:27.650Z,50.60
2023-06-23T12:48:56.772Z,50.70
2023-06-23T12:51:35.006Z,50.80
2023-06-23T12:54:04.281Z,51.10
2023-06-23T13:04:40.557Z,51.00
2023-06-23T13:07:08.672Z,50.80
2023-06-23T13:14:35.976Z,50.80
2023-06-23T13:17:04.105Z,50.50
2023-06-23T13:19:32.635Z,50.60
2023-06-23T13:22:02.017Z,50.70
2023-06-23T13:24:30.085Z,50.70
2023-06-23T13:26:58.200Z,50.80
2023-06-23T13:33:00.108Z,51.00
2023-06-23T13:35:28.983Z,51.00
2023-06-23T13:37:58.833Z,50.80
2023-06-23T13:40:27.368Z,50.90
2023-06-23T13:42:55.574Z,51.00
2023-06-23T13:45:23.661Z,50.90
2023-06-23T13:47:51.749Z,50.90
2023-06-23T13:50:19.788Z,50.90
2023-06-23T13:52:48.066Z,50.90
2023-06-23T13:55:17.884Z,51.00
2023-06-23T13:57:46.551Z,50.90
2023-06-23T14:00:16.029Z,50.70
2023-06-23T14:02:44.278Z,50.60
2023-06-23T14:08:36.792Z,50.60
2023-06-23T14:11:06.268Z,50.50
2023-06-23T14:13:34.334Z,50.40
2023-06-23T14:16:04.691Z,50.40
2023-06-23T14:21:50.948Z,50.70
2023-06-23T14:24:19.247Z,50.70
2023-06-23T14:26:48.623Z,50.80
2023-06-23T14:29:16.684Z,50.80
2023-06-23T14:31:44.781Z,50.70
2023-06-23T14:34:12.906Z,50.50
2023-06-23T14:36:41.038Z,50.40
2023-06-23T14:39:09.245Z,50.20
2023-06-23T14:41:37.476Z,50.10
2023-06-23T14:44:07.038Z,50.20
2023-06-23T14:46:35.293Z,50.40
2023-06-23T14:49:03.527Z,50.50
2023-06-23T14:51:32.199Z,50.70
2023-06-23T14:54:01.473Z,50.90
2023-06-23T14:56:30.736Z,51.00
2023-06-23T14:58:59.585Z,50.90
2023-06-23T15:01:29.033Z,51.00
2023-06-23T15:03:57.181Z,51.10
2023-06-23T15:06:25.353Z,51.30
2023-06-23T15:08:54.183Z,51.60
2023-06-23T15:11:23.145Z,51.80
2023-06-23T15:13:51.197Z,51.90
2023-06-23T15:16:19.788Z,52.00
2023-06-23T15:18:49.170Z,51.90
2023-06-23T15:21:17.271Z,51.90
2023-06-23T15:23:45.389Z,51.90
2023-06-23T15:26:13.551Z,52.10
2023-06-23T15:28:41.602Z,52.20
2023-06-23T15:31:09.655Z,52.30
2023-06-23T15:33:37.671Z,52.40
2023-06-23T15:36:07.751Z,52.40
2023-06-23T15:38:36.099Z,52.30
2023-06-23T15:41:06.085Z,52.30
2023-06-23T15:43:34.346Z,52.30
2023-06-23T15:46:02.388Z,52.40
2023-06-23T15:48:32.330Z,52.30
2023-06-23T15:51:01.770Z,52.20
2023-06-23T15:53:31.537Z,52.30
2023-06-23T15:55:59.745Z,52.50
2023-06-23T15:58:27.782Z,52.60
2023-06-23T16:00:55.917Z,52.60
2023-06-23T16:03:24.249Z,52.70
2023-06-23T16:05:52.468Z,52.70
2023-06-23T16:08:20.509Z,52.90
2023-06-23T16:10:49.914Z,52.90
2023-06-23T16:13:17.948Z,52.90
2023-06-23T16:15:46.063Z,52.80
2023-06-23T16:18:14.188Z,52.90
2023-06-23T16:20:44.386Z,53.00
2023-06-23T16:23:12.596Z,53.10
2023-06-23T16:25:41.049Z,53.30
2023-06-23T16:28:10.424Z,53.40
2023-06-23T16:30:38.575Z,53.50
2023-06-23T16:33:06.700Z,53.60
2023-06-23T16:35:35.283Z,53.70
2023-06-23T16:38:03.805Z,53.80
2023-06-23T16:40:32.051Z,54.00
2023-06-23T16:43:01.101Z,54.00
2023-06-23T16:45:30.973Z,54.10
2023-06-23T16:48:00.270Z,54.20
2023-06-23T16:54:33.744Z,54.40
2023-06-23T16:57:02.041Z,54.40
2023-06-23T16:59:30.456Z,54.10
2023-06-23T17:02:00.227Z,54.20
2023-06-23T17:04:28.316Z,54.40
2023-06-23T17:06:56.454Z,54.30
2023-06-23T17:09:24.551Z,54.50
2023-06-23T17:12:07.938Z,54.60
2023-06-23T17:14:40.590Z,54.60
2023-06-23T17:17:09.964Z,54.80
2023-06-23T17:19:38.057Z,55.10
2023-06-23T17:22:06.994Z,55.00
2023-06-23T17:24:35.196Z,55.30
2023-06-23T17:27:03.352Z,55.30
2023-06-23T17:29:31.446Z,55.40
2023-06-23T17:31:59.519Z,55.40
2023-06-23T17:34:28.966Z,55.60
2023-06-23T17:36:56.992Z,55.80
2023-06-23T17:39:25.045Z,55.90
2023-06-23T17:41:53.083Z,55.90
2023-06-23T17:44:21.114Z,56.00
2023-06-23T17:46:49.305Z,56.10
2023-06-23T17:49:17.528Z,56.10
2023-06-23T17:51:46.955Z,56.20
2023-06-23T17:54:14.985Z,56.10
2023-06-23T17:56:43.033Z,56.10
2023-06-23T18:02:29.670Z,56.50
2023-06-23T18:04:57.843Z,56.30
2023-06-23T18:07:28.264Z,56.30
2023-06-23T18:09:58.210Z,56.80
2023-06-23T18:12:26.450Z,56.40
2023-06-23T18:14:54.494Z,56.40
2023-06-23T18:17:22.939Z,56.30
2023-06-23T18:19:51.152Z,56.40
2023-06-23T18:22:19.205Z,56.50
2023-06-23T18:24:48.587Z,56.50
2023-06-23T18:27:16.683Z,56.60
2023-06-23T18:29:44.701Z,56.60
2023-06-23T18:32:26.074Z,56.90
2023-06-23T18:34:54.482Z,56.80
2023-06-23T18:37:22.552Z,56.80
2023-06-23T18:39:52.176Z,56.80
2023-06-23T18:42:21.546Z,56.90
2023-06-23T18:44:49.606Z,56.90
2023-06-23T18:47:17.774Z,57.20
2023-06-23T18:49:47.658Z,56.90
2023-06-23T18:52:16.267Z,57.00
2023-06-23T18:58:49.770Z,57.30
2023-06-23T19:01:17.852Z,57.00
2023-06-23T19:03:47.702Z,57.00
2023-06-23T19:06:17.137Z,57.00
2023-06-23T19:08:45.203Z,57.10
2023-06-23T19:17:48.359Z,57.50
2023-06-23T19:20:17.237Z,57.20
2023-06-23T19:22:45.420Z,57.20
2023-06-23T19:25:13.677Z,57.20
2023-06-23T19:27:41.767Z,57.30
2023-06-23T19:30:10.889Z,57.40
2023-06-23T19:32:38.936Z,57.40
2023-06-23T19:35:09.252Z,57.40
2023-06-23T19:37:37.346Z,57.40
2023-06-23T19:40:07.275Z,57.40
2023-06-23T19:42:35.330Z,57.40
2023-06-23T19:48:20.100Z,57.80
2023-06-23T19:50:49.764Z,57.40
2023-06-23T19:53:18.471Z,57.40
2023-06-23T19:55:46.741Z,57.40
2023-06-23T19:58:19.309Z,57.60
2023-06-23T20:00:47.934Z,57.60
2023-06-23T20:03:16.022Z,57.60
2023-06-23T20:05:44.344Z,57.60
2023-06-23T20:08:13.827Z,57.70
2023-06-23T20:10:41.864Z,57.90
2023-06-23T20:16:27.090Z,57.90
2023-06-23T20:18:55.266Z,57.60
2023-06-23T20:21:23.430Z,57.80
2023-06-23T20:23:52.809Z,57.80
2023-06-23T20:26:20.983Z,57.90
2023-06-23T20:28:49.108Z,58.00
2023-06-23T20:31:17.451Z,58.00
2023-06-23T20:33:45.688Z,58.00
2023-06-23T20:36:13.722Z,58.10
2023-06-23T20:38:49.078Z,58.20
2023-06-23T20:41:18.825Z,58.10
2023-06-23T20:43:46.869Z,58.30
2023-06-23T20:46:14.986Z,58.40
2023-06-23T20:48:43.969Z,58.90
2023-06-23T20:51:13.814Z,59.20
2023-06-23T20:53:41.919Z,59.00
2023-06-23T20:56:09.965Z,59.40
2023-06-23T20:58:39.559Z,58.70
2023-06-23T21:01:07.808Z,58.70
2023-06-23T21:03:36.006Z,58.80
2023-06-23T21:06:04.194Z,59.20
2023-06-23T21:08:32.277Z,59.20
2023-06-23T21:11:00.366Z,58.60
2023-06-23T21:13:28.602Z,58.50
2023-06-23T21:15:58.235Z,58.50
2023-06-23T21:18:26.702Z,58.60
2023-06-23T21:20:54.818Z,58.80
2023-06-23T21:23:22.896Z,58.60
2023-06-23T21:25:51.040Z,58.70
2023-06-23T21:28:20.248Z,58.60
2023-06-23T21:30:49.714Z,58.70
2023-06-23T21:33:19.345Z,58.60
2023-06-23T21:35:52.397Z,58.50
2023-06-23T21:38:21.106Z,58.60
2023-06-23T21:40:49.323Z,58.50
2023-06-23T21:43:17.475Z,58.40
2023-06-23T21:45:45.815Z,58.40
2023-06-23T21:48:13.970Z,58.40
2023-06-23T21:50:43.462Z,58.30
2023-06-23T21:56:27.953Z,58.60
2023-06-23T21:58:56.202Z,58.50
2023-06-23T22:01:26.360Z,58.60
2023-06-23T22:03:55.996Z,58.60
2023-06-23T22:06:27.714Z,58.60
2023-06-23T22:08:55.790Z,58.60
2023-06-23T22:11:24.094Z,58.60
2023-06-23T22:13:52.477Z,58.50
2023-06-23T22:16:20.678Z,58.40
2023-06-23T22:18:50.379Z,58.30
2023-06-23T22:21:19.389Z,58.30
2023-06-23T22:23:48.851Z,58.30
2023-06-23T22:26:17.059Z,58.30
2023-06-23T22:28:45.304Z,58.20
2023-06-23T22:31:15.441Z,58.10
2023-06-23T22:33:43.825Z,58.10
2023-06-23T22:36:12.030Z,58.10
2023-06-23T22:38:40.314Z,58.10
2023-06-23T22:41:09.819Z,58.10
2023-06-23T22:43:38.388Z,58.20
2023-06-23T22:46:06.507Z,58.20
2023-06-23T22:48:34.622Z,58.30
